createdAt,value
2019-06-08T00:00:58.470Z,68.87
2019-06-08T00:01:58.463Z,68.87
2019-06-08T00:02:58.453Z,68.87
2019-06-08T00:03:58.443Z,68.87
2019-06-08T00:04:58.433Z,68.68
2019-06-08T00:05:58.445Z,69.25
2019-06-08T00:06:58.414Z,68.77
2019-06-08T00:07:58.405Z,68.68
2019-06-08T00:08:58.395Z,68.77
2019-06-08T00:09:58.387Z,68.77
2019-06-08T00:10:58.378Z,68.68
2019-06-08T00:11:58.366Z,68.10
2019-06-08T00:12:58.357Z,68.10
2019-06-08T00:13:58.347Z,68.58
2019-06-08T00:14:58.338Z,68.20
2019-06-08T00:15:58.329Z,68.29
2019-06-08T00:16:58.319Z,68.39
2019-06-08T00:17:59.459Z,69.06
2019-06-08T00:18:58.300Z,68.96
2019-06-08T00:19:58.290Z,69.54
2019-06-08T00:20:58.281Z,69.06
2019-06-08T00:21:58.272Z,69.25
2019-06-08T00:22:58.266Z,69.54
2019-06-08T00:23:58.251Z,69.64
2019-06-08T00:24:58.249Z,69.64
2019-06-08T00:25:58.232Z,69.73
2019-06-08T00:26:58.223Z,69.92
2019-06-08T00:27:58.213Z,70.01
2019-06-08T00:28:58.203Z,69.73
2019-06-08T00:29:58.199Z,69.82
2019-06-08T00:30:58.185Z,69.73
2019-06-08T00:31:58.174Z,69.73
2019-06-08T00:32:58.168Z,70.11
2019-06-08T00:33:58.155Z,70.01
2019-06-08T00:34:58.155Z,70.01
2019-06-08T00:35:58.137Z,69.64
2019-06-08T00:36:58.129Z,68.93
2019-06-08T00:37:58.130Z,69.15
2019-06-08T00:38:58.107Z,69.25
2019-06-08T00:39:58.100Z,69.98
2019-06-08T00:40:58.096Z,69.44
2019-06-08T00:41:58.078Z,69.70
2019-06-08T00:42:58.069Z,69.21
2019-06-08T00:43:58.059Z,68.64
2019-06-08T00:44:58.048Z,68.64
2019-06-08T00:45:58.040Z,69.12
2019-06-08T00:46:58.033Z,69.12
2019-06-08T00:47:58.072Z,69.41
2019-06-08T00:48:58.010Z,69.70
2019-06-08T00:49:58.010Z,69.70
2019-06-08T00:50:57.991Z,70.07
2019-06-08T00:51:57.980Z,70.46
2019-06-08T00:52:57.970Z,70.75
2019-06-08T00:53:57.970Z,70.46
2019-06-08T00:54:57.951Z,70.65
2019-06-08T00:55:57.941Z,70.46
2019-06-08T00:56:57.933Z,69.79
2019-06-08T00:57:57.922Z,69.60
2019-06-08T00:58:57.913Z,69.50
2019-06-08T00:59:57.904Z,69.70
2019-06-08T01:00:57.908Z,69.89
2019-06-08T01:01:57.882Z,69.98
2019-06-08T01:02:57.873Z,69.70
2019-06-08T01:03:57.866Z,70.07
2019-06-08T01:04:57.855Z,69.60
2019-06-08T01:05:57.843Z,69.79
2019-06-08T01:06:57.834Z,70.27
2019-06-08T01:07:57.822Z,70.56
2019-06-08T01:08:57.814Z,70.65
2019-06-08T01:09:57.804Z,70.36
2019-06-08T01:10:57.850Z,69.70
2019-06-08T01:11:57.821Z,69.98
2019-06-08T01:12:57.774Z,70.07
2019-06-08T01:13:57.766Z,70.56
2019-06-08T01:14:57.754Z,70.46
2019-06-08T01:15:57.744Z,70.36
2019-06-08T01:16:57.740Z,70.36
2019-06-08T01:18:02.619Z,70.56
2019-06-08T01:18:57.714Z,70.36
2019-06-08T01:19:57.703Z,70.46
2019-06-08T01:20:57.695Z,70.36
2019-06-08T01:21:57.684Z,70.56
2019-06-08T01:22:57.678Z,69.98
2019-06-08T01:23:57.682Z,70.75
2019-06-08T01:24:57.655Z,69.89
2019-06-08T01:25:57.645Z,69.70
2019-06-08T01:26:57.635Z,70.07
2019-06-08T01:27:57.725Z,70.27
2019-06-08T01:28:57.616Z,70.27
2019-06-08T01:29:57.607Z,70.75
2019-06-08T01:30:57.595Z,70.27
2019-06-08T01:31:57.584Z,70.07
2019-06-08T01:32:57.576Z,69.70
2019-06-08T01:33:57.569Z,69.60
2019-06-08T01:34:57.555Z,69.12
2019-06-08T01:35:57.547Z,69.12
2019-06-08T01:36:57.537Z,69.21
2019-06-08T01:37:57.525Z,68.93
2019-06-08T01:38:57.515Z,68.74
2019-06-08T01:39:57.504Z,68.16
2019-06-08T01:40:57.499Z,68.74
2019-06-08T01:41:57.488Z,68.16
2019-06-08T01:42:57.475Z,68.16
2019-06-08T01:43:57.465Z,68.64
2019-06-08T01:44:57.454Z,68.84
2019-06-08T01:45:57.444Z,68.26
2019-06-08T01:46:57.435Z,68.74
2019-06-08T01:47:57.424Z,68.64
2019-06-08T01:48:57.416Z,68.26
2019-06-08T01:49:57.405Z,67.69
2019-06-08T01:50:57.394Z,67.78
2019-06-08T01:51:57.383Z,67.97
2019-06-08T01:52:57.375Z,67.02
2019-06-08T01:53:57.407Z,67.40
2019-06-08T01:54:57.370Z,67.02
2019-06-08T01:55:57.344Z,67.78
2019-06-08T01:56:57.334Z,67.88
2019-06-08T01:57:57.324Z,68.16
2019-06-08T01:58:57.314Z,69.02
2019-06-08T01:59:57.304Z,68.55
2019-06-08T02:00:57.294Z,68.84
2019-06-08T02:01:57.290Z,68.55
2019-06-08T02:02:57.275Z,68.93
2019-06-08T02:03:57.271Z,69.02
2019-06-08T02:04:57.256Z,69.21
2019-06-08T02:05:57.247Z,69.21
2019-06-08T02:06:57.250Z,69.41
2019-06-08T02:07:57.230Z,69.98
2019-06-08T02:08:57.217Z,69.70
2019-06-08T02:09:57.207Z,69.79
2019-06-08T02:10:57.194Z,70.17
2019-06-08T02:11:57.185Z,69.50
2019-06-08T02:12:57.174Z,69.21
2019-06-08T02:13:57.164Z,69.12
2019-06-08T02:14:57.158Z,69.31
2019-06-08T02:15:57.146Z,69.12
2019-06-08T02:16:57.137Z,69.02
2019-06-08T02:17:57.126Z,69.12
2019-06-08T02:18:57.115Z,69.98
2019-06-08T02:19:57.105Z,69.98
2019-06-08T02:20:57.095Z,69.60
2019-06-08T02:21:57.086Z,69.98
2019-06-08T02:22:57.085Z,70.07
2019-06-08T02:23:57.068Z,70.27
2019-06-08T02:24:57.055Z,70.07
2019-06-08T02:25:57.046Z,70.46
2019-06-08T02:26:57.036Z,70.46
2019-06-08T02:27:57.025Z,70.36
2019-06-08T02:28:57.016Z,70.46
2019-06-08T02:29:57.007Z,70.46
2019-06-08T02:30:56.997Z,70.56
2019-06-08T02:31:56.987Z,70.17
2019-06-08T02:32:56.976Z,70.56
2019-06-08T02:33:56.969Z,70.46
2019-06-08T02:34:56.958Z,70.36
2019-06-08T02:35:56.947Z,69.50
2019-06-08T02:36:56.938Z,70.56
2019-06-08T02:37:56.929Z,70.46
2019-06-08T02:38:56.919Z,70.04
2019-06-08T02:39:56.908Z,70.42
2019-06-08T02:40:56.907Z,70.23
2019-06-08T02:41:56.889Z,69.70
2019-06-08T02:42:56.879Z,69.79
2019-06-08T02:43:56.870Z,69.98
2019-06-08T02:44:56.860Z,69.98
2019-06-08T02:45:56.849Z,70.14
2019-06-08T02:46:56.841Z,69.50
2019-06-08T02:47:56.830Z,69.09
2019-06-08T02:49:04.187Z,69.47
2019-06-08T02:49:56.812Z,69.21
2019-06-08T02:50:56.822Z,69.02
2019-06-08T02:51:56.795Z,69.37
2019-06-08T02:52:56.781Z,69.12
2019-06-08T02:53:56.771Z,69.21
2019-06-08T02:54:56.762Z,69.18
2019-06-08T02:55:56.751Z,68.99
2019-06-08T02:56:56.743Z,68.84
2019-06-08T02:57:56.732Z,68.99
2019-06-08T02:58:56.721Z,68.99
2019-06-08T02:59:56.712Z,68.74
2019-06-08T03:00:56.703Z,68.13
2019-06-08T03:01:56.692Z,68.51
2019-06-08T03:02:56.683Z,69.31
2019-06-08T03:03:56.689Z,68.84
2019-06-08T03:04:56.661Z,68.70
2019-06-08T03:05:56.653Z,68.64
2019-06-08T03:06:56.643Z,68.93
2019-06-08T03:07:56.632Z,69.27
2019-06-08T03:08:56.622Z,68.61
2019-06-08T03:09:56.618Z,68.90
2019-06-08T03:10:56.604Z,68.84
2019-06-08T03:11:56.613Z,68.99
2019-06-08T03:12:56.584Z,68.99
2019-06-08T03:13:56.578Z,68.70
2019-06-08T03:14:56.564Z,68.70
2019-06-08T03:15:56.554Z,68.70
2019-06-08T03:16:56.544Z,68.64
2019-06-08T03:17:56.534Z,68.93
2019-06-08T03:18:56.524Z,68.90
2019-06-08T03:19:56.520Z,68.61
2019-06-08T03:20:56.512Z,69.37
2019-06-08T03:21:56.499Z,69.70
2019-06-08T03:22:56.486Z,70.33
2019-06-08T03:23:56.475Z,70.04
2019-06-08T03:24:56.468Z,70.04
2019-06-08T03:25:56.478Z,69.18
2019-06-08T03:26:56.445Z,69.95
2019-06-08T03:27:56.435Z,70.33
2019-06-08T03:28:56.426Z,70.52
2019-06-08T03:29:56.416Z,70.81
2019-06-08T03:30:56.408Z,70.61
2019-06-08T03:31:57.622Z,70.81
2019-06-08T03:32:57.259Z,71.00
2019-06-08T03:33:56.862Z,71.00
2019-06-08T03:34:57.311Z,71.09
2019-06-08T03:35:58.398Z,71.47
2019-06-08T03:36:57.595Z,71.38
2019-06-08T03:37:56.347Z,70.90
2019-06-08T03:38:56.330Z,71.19
2019-06-08T03:39:56.319Z,71.19
2019-06-08T03:40:56.310Z,71.38
2019-06-08T03:41:56.300Z,71.47
2019-06-08T03:42:58.016Z,71.19
2019-06-08T03:43:56.281Z,71.38
2019-06-08T03:44:56.271Z,71.09
2019-06-08T03:45:56.261Z,71.09
2019-06-08T03:46:56.253Z,71.09
2019-06-08T03:47:56.245Z,71.67
2019-06-08T03:48:56.230Z,71.67
2019-06-08T03:49:57.514Z,71.67
2019-06-08T03:50:56.211Z,71.38
2019-06-08T03:51:56.203Z,72.05
2019-06-08T03:52:56.191Z,71.76
2019-06-08T03:53:56.181Z,72.14
2019-06-08T03:54:56.179Z,71.86
2019-06-08T03:55:56.163Z,72.72
2019-06-08T03:56:56.151Z,72.33
2019-06-08T03:57:56.144Z,72.33
2019-06-08T03:58:56.162Z,71.95
2019-06-08T03:59:56.121Z,71.95
2019-06-08T04:00:56.111Z,72.05
2019-06-08T04:01:56.102Z,72.43
2019-06-08T04:02:56.092Z,72.05
2019-06-08T04:03:59.957Z,71.67
2019-06-08T04:04:56.084Z,71.67
2019-06-08T04:05:56.064Z,71.28
2019-06-08T04:06:56.053Z,71.47
2019-06-08T04:07:56.043Z,71.38
2019-06-08T04:08:56.032Z,71.76
2019-06-08T04:09:56.023Z,72.05
2019-06-08T04:10:56.013Z,71.67
2019-06-08T04:11:56.003Z,71.38
2019-06-08T04:12:55.993Z,71.57
2019-06-08T04:13:55.984Z,71.38
2019-06-08T04:14:55.974Z,71.38
2019-06-08T04:15:55.962Z,71.67
2019-06-08T04:16:55.953Z,71.72
2019-06-08T04:17:55.943Z,71.67
2019-06-08T04:18:55.940Z,72.01
2019-06-08T04:20:10.322Z,71.76
2019-06-08T04:20:55.915Z,71.95
2019-06-08T04:21:55.906Z,71.86
2019-06-08T04:22:55.895Z,71.57
2019-06-08T04:23:55.885Z,71.38
2019-06-08T04:24:55.876Z,71.57
2019-06-08T04:25:55.872Z,71.34
2019-06-08T04:26:55.855Z,70.81
2019-06-08T04:27:55.849Z,70.81
2019-06-08T04:28:55.835Z,70.29
2019-06-08T04:29:55.826Z,70.42
2019-06-08T04:30:55.820Z,70.33
2019-06-08T04:31:55.805Z,71.25
2019-06-08T04:32:55.803Z,70.71
2019-06-08T04:33:55.787Z,70.61
2019-06-08T04:34:55.780Z,70.81
2019-06-08T04:35:55.766Z,71.28
2019-06-08T04:36:55.756Z,70.61
2019-06-08T04:37:55.750Z,71.19
2019-06-08T04:38:55.739Z,70.96
2019-06-08T04:39:55.729Z,71.15
2019-06-08T04:40:55.715Z,71.34
2019-06-08T04:41:55.712Z,71.34
2019-06-08T04:42:55.699Z,71.25
2019-06-08T04:43:55.687Z,71.25
2019-06-08T04:44:55.679Z,71.53
2019-06-08T04:45:55.666Z,71.06
2019-06-08T04:46:55.659Z,71.34
2019-06-08T04:47:55.646Z,71.25
2019-06-08T04:48:55.637Z,71.15
2019-06-08T04:49:55.627Z,71.92
2019-06-08T04:50:55.620Z,71.63
2019-06-08T04:51:55.608Z,71.72
2019-06-08T04:52:55.597Z,71.92
2019-06-08T04:53:55.587Z,72.30
2019-06-08T04:54:55.576Z,72.20
2019-06-08T04:55:55.573Z,71.63
2019-06-08T04:56:55.557Z,71.82
2019-06-08T04:57:55.546Z,72.01
2019-06-08T04:58:55.538Z,72.49
2019-06-08T04:59:55.525Z,72.68
2019-06-08T05:00:55.516Z,72.58
2019-06-08T05:01:55.507Z,72.39
2019-06-08T05:02:55.496Z,72.20
2019-06-08T05:03:55.487Z,72.20
2019-06-08T05:04:55.477Z,72.11
2019-06-08T05:05:55.467Z,72.49
2019-06-08T05:06:55.459Z,72.39
2019-06-08T05:07:55.452Z,72.39
2019-06-08T05:08:55.438Z,72.58
2019-06-08T05:09:55.427Z,72.20
2019-06-08T05:10:55.418Z,72.78
2019-06-08T05:11:55.407Z,72.11
2019-06-08T05:12:55.397Z,72.78
2019-06-08T05:13:55.390Z,72.68
2019-06-08T05:14:55.377Z,72.58
2019-06-08T05:15:55.367Z,72.87
2019-06-08T05:16:55.364Z,72.78
2019-06-08T05:17:55.348Z,72.49
2019-06-08T05:18:55.337Z,73.16
2019-06-08T05:19:55.326Z,72.20
2019-06-08T05:20:55.317Z,72.58
2019-06-08T05:21:55.309Z,72.39
2019-06-08T05:22:55.300Z,72.68
2019-06-08T05:23:58.984Z,72.78
2019-06-08T05:24:55.276Z,72.78
2019-06-08T05:25:55.265Z,73.07
2019-06-08T05:26:55.257Z,72.78
2019-06-08T05:27:55.245Z,73.54
2019-06-08T05:28:55.238Z,73.25
2019-06-08T05:29:55.225Z,73.35
2019-06-08T05:30:55.216Z,73.63
2019-06-08T05:31:55.213Z,73.25
2019-06-08T05:32:55.195Z,73.25
2019-06-08T05:33:55.187Z,73.35
2019-06-08T05:34:55.178Z,73.35
2019-06-08T05:35:55.165Z,73.35
2019-06-08T05:36:55.155Z,72.97
2019-06-08T05:37:55.153Z,72.97
2019-06-08T05:38:55.135Z,72.58
2019-06-08T05:39:55.124Z,72.68
2019-06-08T05:40:55.116Z,72.68
2019-06-08T05:41:55.106Z,72.39
2019-06-08T05:42:55.095Z,72.87
2019-06-08T05:43:55.089Z,72.97
2019-06-08T05:44:55.075Z,72.68
2019-06-08T05:45:55.071Z,72.78
2019-06-08T05:46:55.055Z,73.25
2019-06-08T05:47:55.045Z,73.83
2019-06-08T05:48:55.035Z,72.97
2019-06-08T05:49:55.026Z,72.97
2019-06-08T05:51:03.607Z,73.92
2019-06-08T05:51:55.004Z,73.25
2019-06-08T05:52:54.994Z,73.44
2019-06-08T05:53:54.984Z,72.97
2019-06-08T05:54:54.976Z,73.07
2019-06-08T05:55:54.964Z,73.07
2019-06-08T05:56:54.954Z,73.35
2019-06-08T05:57:54.944Z,73.25
2019-06-08T05:58:54.934Z,73.07
2019-06-08T05:59:54.924Z,73.54
2019-06-08T06:00:54.917Z,72.87
2019-06-08T06:01:54.905Z,73.07
2019-06-08T06:02:54.894Z,73.73
2019-06-08T06:03:54.887Z,74.02
2019-06-08T06:04:54.956Z,74.49
2019-06-08T06:05:54.864Z,74.69
2019-06-08T06:06:54.855Z,74.59
2019-06-08T06:07:54.847Z,74.69
2019-06-08T06:08:54.835Z,75.35
2019-06-08T06:09:54.825Z,74.69
2019-06-08T06:10:54.814Z,75.16
2019-06-08T06:11:54.808Z,75.35
2019-06-08T06:12:54.794Z,75.07
2019-06-08T06:13:54.785Z,75.16
2019-06-08T06:14:54.774Z,74.88
2019-06-08T06:15:54.764Z,75.93
2019-06-08T06:16:54.755Z,75.45
2019-06-08T06:17:54.745Z,75.74
2019-06-08T06:18:54.735Z,76.50
2019-06-08T06:19:54.724Z,77.03
2019-06-08T06:21:09.745Z,77.61
2019-06-08T06:21:54.707Z,78.47
2019-06-08T06:22:58.325Z,78.56
2019-06-08T06:23:54.684Z,79.04
2019-06-08T06:24:54.681Z,80.19
2019-06-08T06:25:54.665Z,79.52
2019-06-08T06:26:54.655Z,78.85
2019-06-08T06:27:54.644Z,79.90
2019-06-08T06:28:54.636Z,79.71
2019-06-08T06:29:54.624Z,79.33
2019-06-08T06:30:54.617Z,78.75
2019-06-08T06:31:54.605Z,78.85
2019-06-08T06:32:54.594Z,78.47
2019-06-08T06:33:54.584Z,78.37
2019-06-08T06:34:54.582Z,78.41
2019-06-08T06:35:54.565Z,78.31
2019-06-08T06:36:57.271Z,78.31
2019-06-08T06:37:54.546Z,78.13
2019-06-08T06:38:54.537Z,78.31
2019-06-08T06:39:54.528Z,78.03
2019-06-08T06:40:54.521Z,76.88
2019-06-08T06:41:54.508Z,75.83
2019-06-08T06:42:54.506Z,75.83
2019-06-08T06:43:54.488Z,75.96
2019-06-08T06:44:54.481Z,75.68
2019-06-08T06:45:54.470Z,74.66
2019-06-08T06:46:54.469Z,73.90
2019-06-08T06:47:54.464Z,73.71
2019-06-08T06:48:54.449Z,72.37
2019-06-08T06:49:54.435Z,72.75
2019-06-08T06:50:54.429Z,72.18
2019-06-08T06:51:54.416Z,72.18
2019-06-08T06:52:54.408Z,72.75
2019-06-08T06:53:54.399Z,72.56
2019-06-08T06:54:54.391Z,71.32
2019-06-08T06:55:54.382Z,71.03
2019-06-08T06:56:54.380Z,71.80
2019-06-08T06:57:54.366Z,72.18
2019-06-08T06:58:54.358Z,71.99
2019-06-08T06:59:54.476Z,72.18
2019-06-08T07:00:54.340Z,72.08
2019-06-08T07:01:57.455Z,71.32
2019-06-08T07:02:54.324Z,71.22
2019-06-08T07:03:54.472Z,70.75
2019-06-08T07:04:54.431Z,71.03
2019-06-08T07:05:54.427Z,70.84
2019-06-08T07:06:54.492Z,71.51
2019-06-08T07:07:54.549Z,71.45
2019-06-08T07:08:54.697Z,70.84
2019-06-08T07:09:54.891Z,70.46
2019-06-08T07:10:55.218Z,71.03
2019-06-08T07:11:56.155Z,70.07
2019-06-08T07:12:54.850Z,70.97
2019-06-08T07:13:55.173Z,70.50
2019-06-08T07:14:55.510Z,70.40
2019-06-08T07:15:57.564Z,69.06
2019-06-08T07:16:54.213Z,69.35
2019-06-08T07:17:54.982Z,69.82
2019-06-08T07:18:54.578Z,69.44
2019-06-08T07:19:54.696Z,70.21
2019-06-08T07:20:54.423Z,69.44
2019-06-08T07:21:54.794Z,69.06
2019-06-08T07:22:54.426Z,69.25
2019-06-08T07:23:56.066Z,69.82
2019-06-08T07:24:54.569Z,69.82
2019-06-08T07:25:54.538Z,70.17
2019-06-08T07:26:54.558Z,70.75
2019-06-08T07:27:55.101Z,70.65
2019-06-08T07:28:55.296Z,70.46
2019-06-08T07:29:54.759Z,70.84
2019-06-08T07:30:54.901Z,71.03
2019-06-08T07:31:55.354Z,70.56
2019-06-08T07:32:55.093Z,70.94
2019-06-08T07:33:55.528Z,71.42
2019-06-08T07:34:55.156Z,70.94
2019-06-08T07:35:55.241Z,70.65
2019-06-08T07:36:55.394Z,71.61
2019-06-08T07:37:55.434Z,71.51
2019-06-08T07:38:54.046Z,71.42
2019-06-08T07:39:54.037Z,72.75
2019-06-08T07:40:57.404Z,72.28
2019-06-08T07:41:54.330Z,72.08
2019-06-08T07:42:55.241Z,71.64
2019-06-08T07:43:54.438Z,72.12
2019-06-08T07:44:55.109Z,70.81
2019-06-08T07:45:54.202Z,68.90
2019-06-08T07:46:53.987Z,68.62
2019-06-08T07:47:54.056Z,68.62
2019-06-08T07:48:54.380Z,67.85
2019-06-08T07:49:55.483Z,67.50
2019-06-08T07:50:54.327Z,67.79
2019-06-08T07:52:02.413Z,68.07
2019-06-08T07:52:54.640Z,66.38
2019-06-08T07:53:53.957Z,66.38
2019-06-08T07:54:54.703Z,65.23
2019-06-08T07:55:53.946Z,65.62
2019-06-08T07:56:54.955Z,65.78
2019-06-08T07:57:54.095Z,66.38
2019-06-08T07:58:55.033Z,65.81
2019-06-08T07:59:54.592Z,66.00
2019-06-08T08:00:54.933Z,65.78
2019-06-08T08:01:54.020Z,66.29
2019-06-08T08:02:54.356Z,66.67
2019-06-08T08:03:54.222Z,65.17
2019-06-08T08:04:54.582Z,64.72
2019-06-08T08:05:55.043Z,63.67
2019-06-08T08:06:54.546Z,63.48
2019-06-08T08:07:54.746Z,63.09
2019-06-08T08:08:54.840Z,62.23
2019-06-08T08:09:54.921Z,62.81
2019-06-08T08:10:54.572Z,61.75
2019-06-08T08:11:55.226Z,62.59
2019-06-08T08:12:54.772Z,64.22
2019-06-08T08:13:54.868Z,64.22
2019-06-08T08:14:55.204Z,64.02
2019-06-08T08:15:57.273Z,64.76
2019-06-08T08:16:55.032Z,64.85
2019-06-08T08:17:54.241Z,65.62
2019-06-08T08:18:53.908Z,65.23
2019-06-08T08:19:55.101Z,65.62
2019-06-08T08:20:55.139Z,66.19
2019-06-08T08:21:54.973Z,66.48
2019-06-08T08:22:57.883Z,66.86
2019-06-08T08:23:55.177Z,66.86
2019-06-08T08:24:56.108Z,66.48
2019-06-08T08:25:55.164Z,67.21
2019-06-08T08:26:55.013Z,67.60
2019-06-08T08:27:53.868Z,65.97
2019-06-08T08:28:55.136Z,65.97
2019-06-08T08:29:53.858Z,66.51
2019-06-08T08:30:53.897Z,66.80
2019-06-08T08:31:53.846Z,67.94
2019-06-08T08:32:55.083Z,68.23
2019-06-08T08:33:54.633Z,68.20
2019-06-08T08:34:53.849Z,68.49
2019-06-08T08:35:53.822Z,68.39
2019-06-08T08:36:53.816Z,68.20
2019-06-08T08:37:58.000Z,69.06
2019-06-08T08:38:53.803Z,68.87
2019-06-08T08:39:53.794Z,68.77
2019-06-08T08:40:55.179Z,68.10
2019-06-08T08:41:56.950Z,68.49
2019-06-08T08:42:53.851Z,68.77
2019-06-08T08:43:54.394Z,68.58
2019-06-08T08:44:54.212Z,69.09
2019-06-08T08:45:53.990Z,69.19
2019-06-08T08:46:54.741Z,69.95
2019-06-08T08:48:10.365Z,68.90
2019-06-08T08:48:54.260Z,69.09
2019-06-08T08:49:54.049Z,67.76
2019-06-08T08:50:54.163Z,67.76
2019-06-08T08:51:54.043Z,67.76
2019-06-08T08:52:54.167Z,68.13
2019-06-08T08:53:55.843Z,67.85
2019-06-08T08:54:54.308Z,68.33
2019-06-08T08:55:54.318Z,68.04
2019-06-08T08:56:55.419Z,67.60
2019-06-08T08:57:54.781Z,67.60
2019-06-08T08:58:54.404Z,67.88
2019-06-08T08:59:56.302Z,67.79
2019-06-08T09:00:55.036Z,66.83
2019-06-08T09:01:54.690Z,66.93
2019-06-08T09:03:13.121Z,66.54
2019-06-08T09:03:56.008Z,66.64
2019-06-08T09:04:55.159Z,66.64
2019-06-08T09:05:54.702Z,66.64
2019-06-08T09:06:55.143Z,66.93
2019-06-08T09:07:53.765Z,67.31
2019-06-08T09:08:53.926Z,66.64
2019-06-08T09:09:53.609Z,66.74
2019-06-08T09:10:53.569Z,66.64
2019-06-08T09:11:54.905Z,67.31
2019-06-08T09:12:53.961Z,67.69
2019-06-08T09:13:53.866Z,67.41
2019-06-08T09:14:54.862Z,67.88
2019-06-08T09:15:53.839Z,66.25
2019-06-08T09:16:53.788Z,66.54
2019-06-08T09:17:53.854Z,66.74
2019-06-08T09:18:53.875Z,66.64
2019-06-08T09:19:54.078Z,67.21
2019-06-08T09:20:54.010Z,66.83
2019-06-08T09:21:54.034Z,67.02
2019-06-08T09:23:00.764Z,67.21
2019-06-08T09:23:53.999Z,67.18
2019-06-08T09:24:54.251Z,68.07
2019-06-08T09:25:55.703Z,67.98
2019-06-08T09:26:54.218Z,68.07
2019-06-08T09:27:54.656Z,67.69
2019-06-08T09:28:54.486Z,67.60
2019-06-08T09:29:54.965Z,68.07
2019-06-08T09:30:54.155Z,68.07
2019-06-08T09:31:53.941Z,67.79
2019-06-08T09:32:54.416Z,67.79
2019-06-08T09:34:01.067Z,67.50
2019-06-08T09:34:54.555Z,66.64
2019-06-08T09:35:54.768Z,66.48
2019-06-08T09:36:54.964Z,66.77
2019-06-08T09:37:54.828Z,66.38
2019-06-08T09:38:55.988Z,65.55
2019-06-08T09:39:53.919Z,65.01
2019-06-08T09:40:54.861Z,63.29
2019-06-08T09:41:54.192Z,63.67
2019-06-08T09:42:59.127Z,64.05
2019-06-08T09:43:55.283Z,64.72
2019-06-08T09:44:55.117Z,63.45
2019-06-08T09:45:54.174Z,64.31
2019-06-08T09:46:54.022Z,65.55
2019-06-08T09:47:54.272Z,65.91
2019-06-08T09:48:54.545Z,66.48
2019-06-08T09:49:54.199Z,67.44
2019-06-08T09:50:53.320Z,67.25
2019-06-08T09:51:54.388Z,66.86
2019-06-08T09:53:10.100Z,66.45
2019-06-08T09:53:54.699Z,66.45
2019-06-08T09:54:54.255Z,68.07
2019-06-08T09:55:54.711Z,67.69
2019-06-08T09:56:53.720Z,67.21
2019-06-08T09:57:54.550Z,67.50
2019-06-08T09:58:55.924Z,67.88
2019-06-08T09:59:54.791Z,67.79
2019-06-08T10:00:54.532Z,68.17
2019-06-08T10:01:53.983Z,67.88
2019-06-08T10:02:54.636Z,67.88
2019-06-08T10:03:54.322Z,68.27
2019-06-08T10:04:54.185Z,67.79
2019-06-08T10:05:54.220Z,68.27
2019-06-08T10:06:54.290Z,67.79
2019-06-08T10:07:54.407Z,67.79
2019-06-08T10:08:54.283Z,67.79
2019-06-08T10:09:54.272Z,66.48
2019-06-08T10:10:54.400Z,65.75
2019-06-08T10:11:54.262Z,65.88
2019-06-08T10:12:54.599Z,64.09
2019-06-08T10:13:54.384Z,62.74
2019-06-08T10:14:54.490Z,63.03
2019-06-08T10:15:54.802Z,61.91
2019-06-08T10:16:54.148Z,61.59
2019-06-08T10:17:54.685Z,61.88
2019-06-08T10:18:54.832Z,63.29
2019-06-08T10:19:54.529Z,63.29
2019-06-08T10:20:54.676Z,63.86
2019-06-08T10:21:54.706Z,64.05
2019-06-08T10:22:54.723Z,62.81
2019-06-08T10:23:54.751Z,61.37
2019-06-08T10:24:53.236Z,62.42
2019-06-08T10:25:53.145Z,63.09
2019-06-08T10:26:53.147Z,63.57
2019-06-08T10:27:53.139Z,64.18
2019-06-08T10:28:53.137Z,63.22
2019-06-08T10:29:53.136Z,62.96
2019-06-08T10:30:53.134Z,63.86
2019-06-08T10:31:53.138Z,60.98
2019-06-08T10:32:53.139Z,60.02
2019-06-08T10:33:53.131Z,58.96
2019-06-08T10:34:53.132Z,58.61
2019-06-08T10:35:53.131Z,58.87
2019-06-08T10:36:53.135Z,59.54
2019-06-08T10:37:55.156Z,60.60
2019-06-08T10:38:53.141Z,59.57
2019-06-08T10:39:53.136Z,58.10
2019-06-08T10:40:53.141Z,58.10
2019-06-08T10:41:53.140Z,57.14
2019-06-08T10:42:53.146Z,58.07
2019-06-08T10:43:53.141Z,59.61
2019-06-08T10:44:53.150Z,59.99
2019-06-08T10:45:53.143Z,59.73
2019-06-08T10:46:53.147Z,59.73
2019-06-08T10:47:53.145Z,60.14
2019-06-08T10:48:53.159Z,59.41
2019-06-08T10:49:53.150Z,58.06
2019-06-08T10:50:53.152Z,57.00
2019-06-08T10:51:53.164Z,57.20
2019-06-08T10:52:53.156Z,57.87
2019-06-08T10:53:53.809Z,57.10
2019-06-08T10:54:53.168Z,56.40
2019-06-08T10:55:53.165Z,57.26
2019-06-08T10:56:53.165Z,57.65
2019-06-08T10:57:53.166Z,58.15
2019-06-08T10:58:53.185Z,56.52
2019-06-08T10:59:53.171Z,54.79
2019-06-08T11:00:53.173Z,55.73
2019-06-08T11:01:53.173Z,56.78
2019-06-08T11:02:53.176Z,57.14
2019-06-08T11:03:53.181Z,57.71
2019-06-08T11:04:53.175Z,59.25
2019-06-08T11:05:53.225Z,58.29
2019-06-08T11:06:53.174Z,57.81
2019-06-08T11:07:53.189Z,58.48
2019-06-08T11:08:53.175Z,57.71
2019-06-08T11:09:53.171Z,58.36
2019-06-08T11:10:53.170Z,59.09
2019-06-08T11:11:53.169Z,59.67
2019-06-08T11:12:53.174Z,59.86
2019-06-08T11:13:53.163Z,60.25
2019-06-08T11:14:53.165Z,60.72
2019-06-08T11:15:53.155Z,60.44
2019-06-08T11:16:53.153Z,60.92
2019-06-08T11:17:53.148Z,60.35
2019-06-08T11:18:53.154Z,60.63
2019-06-08T11:19:53.140Z,59.96
2019-06-08T11:20:53.137Z,59.96
2019-06-08T11:21:53.133Z,59.29
2019-06-08T11:22:53.133Z,59.09
2019-06-08T11:24:05.482Z,58.81
2019-06-08T11:24:53.121Z,58.81
2019-06-08T11:25:53.116Z,59.48
2019-06-08T11:26:53.112Z,59.86
2019-06-08T11:27:53.107Z,60.25
2019-06-08T11:28:53.103Z,60.79
2019-06-08T11:29:53.100Z,61.94
2019-06-08T11:30:53.094Z,61.66
2019-06-08T11:31:53.088Z,61.98
2019-06-08T11:32:53.083Z,61.11
2019-06-08T11:33:53.087Z,59.89
2019-06-08T11:34:53.079Z,59.80
2019-06-08T11:35:53.104Z,60.18
2019-06-08T11:36:53.065Z,59.70
2019-06-08T11:37:53.101Z,59.86
2019-06-08T11:38:53.120Z,59.96
2019-06-08T11:39:53.051Z,60.92
2019-06-08T11:40:53.048Z,62.87
2019-06-08T11:41:53.056Z,60.69
2019-06-08T11:42:53.040Z,58.67
2019-06-08T11:43:53.035Z,58.58
2019-06-08T11:44:53.046Z,59.22
2019-06-08T11:45:53.029Z,60.98
2019-06-08T11:46:53.031Z,59.83
2019-06-08T11:47:53.035Z,59.44
2019-06-08T11:48:53.017Z,58.67
2019-06-08T11:49:53.014Z,59.83
2019-06-08T11:50:53.025Z,60.11
2019-06-08T11:51:53.009Z,59.34
2019-06-08T11:52:53.003Z,60.40
2019-06-08T11:53:53.036Z,61.08
2019-06-08T11:54:52.997Z,59.83
2019-06-08T11:55:52.992Z,59.92
2019-06-08T11:56:52.988Z,60.66
2019-06-08T11:57:52.984Z,60.69
2019-06-08T11:58:52.984Z,59.41
2019-06-08T11:59:52.975Z,58.94
2019-06-08T12:00:52.971Z,58.84
2019-06-08T12:01:52.968Z,58.94
2019-06-08T12:02:52.966Z,59.16
2019-06-08T12:03:52.960Z,58.10
2019-06-08T12:04:52.955Z,57.45
2019-06-08T12:05:52.952Z,58.10
2019-06-08T12:06:52.949Z,58.10
2019-06-08T12:07:52.945Z,57.81
2019-06-08T12:08:52.941Z,57.59
2019-06-08T12:09:52.938Z,58.48
2019-06-08T12:10:52.933Z,59.12
2019-06-08T12:11:52.929Z,59.03
2019-06-08T12:12:52.925Z,59.70
2019-06-08T12:13:52.921Z,60.28
2019-06-08T12:14:52.917Z,59.22
2019-06-08T12:15:52.911Z,58.84
2019-06-08T12:16:52.908Z,60.38
2019-06-08T12:17:52.902Z,60.25
2019-06-08T12:18:52.899Z,59.86
2019-06-08T12:19:52.894Z,59.80
2019-06-08T12:20:52.887Z,59.12
2019-06-08T12:21:52.882Z,58.84
2019-06-08T12:22:52.900Z,59.12
2019-06-08T12:23:52.886Z,59.22
2019-06-08T12:24:52.875Z,58.67
2019-06-08T12:25:52.863Z,59.28
2019-06-08T12:27:00.140Z,56.62
2019-06-08T12:27:52.893Z,54.82
2019-06-08T12:28:52.849Z,54.24
2019-06-08T12:29:52.846Z,53.57
2019-06-08T12:30:52.844Z,53.50
2019-06-08T12:31:52.843Z,53.31
2019-06-08T12:32:52.839Z,52.66
2019-06-08T12:33:52.837Z,51.98
2019-06-08T12:34:52.835Z,53.62
2019-06-08T12:35:52.833Z,53.50
2019-06-08T12:36:52.832Z,53.31
2019-06-08T12:37:52.833Z,54.82
2019-06-08T12:38:52.828Z,53.47
2019-06-08T12:39:52.824Z,53.69
2019-06-08T12:40:52.822Z,52.37
2019-06-08T12:41:52.822Z,51.79
2019-06-08T12:42:52.820Z,51.21
2019-06-08T12:43:52.818Z,50.95
2019-06-08T12:44:52.818Z,49.73
2019-06-08T12:45:52.817Z,49.70
2019-06-08T12:46:52.885Z,50.47
2019-06-08T12:47:52.817Z,49.60
2019-06-08T12:48:52.818Z,49.96
2019-06-08T12:49:52.818Z,50.73
2019-06-08T12:50:52.818Z,50.63
2019-06-08T12:51:52.818Z,50.83
2019-06-08T12:52:52.817Z,51.86